createdAt,value
2023-05-22T00:02:18.511Z,67.25
2023-05-22T00:06:22.161Z,67.13
2023-05-22T00:10:25.293Z,67.46
2023-05-22T00:14:28.355Z,67.56
2023-05-22T00:18:32.818Z,67.79
2023-05-22T00:22:36.447Z,67.76
2023-05-22T00:26:39.545Z,68.12
2023-05-22T00:30:42.649Z,68.38
2023-05-22T00:34:47.152Z,68.56
2023-05-22T00:38:50.915Z,68.32
2023-05-22T00:42:54.275Z,68.31
2023-05-22T00:46:57.783Z,68.67
2023-05-22T00:51:03.451Z,68.94
2023-05-22T00:55:08.864Z,68.95
2023-05-22T00:59:12.143Z,69.36
2023-05-22T01:03:16.166Z,69.88
2023-05-22T01:07:21.679Z,70.05
2023-05-22T01:11:29.753Z,70.21
2023-05-22T01:15:41.065Z,70.31
2023-05-22T01:20:01.599Z,70.26
2023-05-22T01:24:37.385Z,70.31
2023-05-22T01:29:02.149Z,70.48
2023-05-22T01:33:09.202Z,71.08
2023-05-22T01:37:14.470Z,71.40
2023-05-22T01:41:18.740Z,71.64
2023-05-22T01:45:22.575Z,71.90
2023-05-22T01:49:27.787Z,72.05
2023-05-22T01:53:38.721Z,72.44
2023-05-22T01:57:50.340Z,72.36
2023-05-22T02:01:55.583Z,72.15
2023-05-22T02:06:03.375Z,72.06
2023-05-22T02:10:10.444Z,71.86
2023-05-22T02:14:13.916Z,72.00
2023-05-22T02:18:16.990Z,71.90
2023-05-22T02:22:22.204Z,72.02
2023-05-22T02:26:25.531Z,72.02
2023-05-22T02:30:28.657Z,72.23
2023-05-22T02:34:34.989Z,72.36
2023-05-22T02:38:39.536Z,72.38
2023-05-22T02:42:43.071Z,72.75
2023-05-22T02:46:47.549Z,73.08
2023-05-22T02:50:50.669Z,73.28
2023-05-22T02:54:55.105Z,73.35
2023-05-22T02:58:59.209Z,73.57
2023-05-22T03:03:02.425Z,74.01
2023-05-22T03:07:07.275Z,74.02
2023-05-22T03:11:11.912Z,74.13
2023-05-22T03:15:15.038Z,74.22
2023-05-22T03:19:19.605Z,74.20
2023-05-22T03:23:22.660Z,74.58
2023-05-22T03:27:27.278Z,74.50
2023-05-22T03:31:32.542Z,74.71
2023-05-22T03:35:44.568Z,74.89
2023-05-22T03:39:48.062Z,74.85
2023-05-22T03:44:05.283Z,74.95
2023-05-22T03:48:10.735Z,74.88
2023-05-22T03:52:13.904Z,74.87
2023-05-22T03:56:17.704Z,74.81
2023-05-22T04:00:26.970Z,74.77
2023-05-22T04:04:30.233Z,75.02
2023-05-22T04:08:33.450Z,74.90
2023-05-22T04:12:36.536Z,74.96
2023-05-22T04:16:40.963Z,74.98
2023-05-22T04:20:43.983Z,75.29
2023-05-22T04:24:49.182Z,75.35
2023-05-22T04:28:52.266Z,75.38
2023-05-22T04:32:56.780Z,75.42
2023-05-22T04:37:00.137Z,75.68
2023-05-22T04:41:03.467Z,75.78
2023-05-22T04:45:08.172Z,76.10
2023-05-22T04:49:12.565Z,76.33
2023-05-22T04:53:15.726Z,76.40
2023-05-22T04:57:18.906Z,76.65
2023-05-22T05:01:22.777Z,76.78
2023-05-22T05:05:27.350Z,76.48
2023-05-22T05:09:30.889Z,76.62
2023-05-22T05:13:34.151Z,76.45
2023-05-22T05:17:37.383Z,76.56
2023-05-22T05:21:42.312Z,76.53
2023-05-22T05:25:45.623Z,76.50
2023-05-22T05:29:50.150Z,76.58
2023-05-22T05:34:01.805Z,76.16
2023-05-22T05:38:25.476Z,76.01
2023-05-22T05:42:29.669Z,75.71
2023-05-22T05:46:36.342Z,75.39
2023-05-22T05:50:39.690Z,74.91
2023-05-22T05:54:47.564Z,74.07
2023-05-22T05:58:55.193Z,73.48
2023-05-22T06:03:25.685Z,73.04
2023-05-22T06:07:44.583Z,72.34
2023-05-22T06:11:49.165Z,71.90
2023-05-22T06:15:52.263Z,71.34
2023-05-22T06:19:55.366Z,70.67
2023-05-22T06:23:58.837Z,70.03
2023-05-22T06:28:03.400Z,69.05
2023-05-22T06:32:07.343Z,67.72
2023-05-22T06:36:12.626Z,68.08
2023-05-22T06:40:15.879Z,67.52
2023-05-22T06:44:32.817Z,66.80
2023-05-22T06:48:41.989Z,66.27
2023-05-22T06:52:53.708Z,65.42
2023-05-22T06:56:57.552Z,65.26
2023-05-22T07:01:05.095Z,64.90
2023-05-22T07:05:17.189Z,64.63
2023-05-22T07:09:28.545Z,64.23
2023-05-22T07:13:32.192Z,63.87
2023-05-22T07:17:36.725Z,62.96
2023-05-22T07:21:40.095Z,62.29
2023-05-22T07:25:44.480Z,61.88
2023-05-22T07:29:49.696Z,62.02
2023-05-22T07:33:56.086Z,60.30
2023-05-22T07:37:59.280Z,60.40
2023-05-22T07:42:03.017Z,59.04
2023-05-22T07:46:09.463Z,58.00
2023-05-22T07:50:21.963Z,57.96
2023-05-22T07:54:25.262Z,57.16
2023-05-22T07:58:28.485Z,55.83
2023-05-22T08:02:33.732Z,56.18
2023-05-22T08:06:39.607Z,56.48
2023-05-22T08:11:01.770Z,55.99
2023-05-22T08:15:06.956Z,55.76
2023-05-22T08:19:11.125Z,55.35
2023-05-22T08:23:15.692Z,55.73
2023-05-22T08:27:18.737Z,55.61
2023-05-22T08:31:22.902Z,55.31
2023-05-22T08:35:25.964Z,55.09
2023-05-22T08:39:31.350Z,54.35
2023-05-22T08:43:34.460Z,54.20
2023-05-22T08:47:39.017Z,53.35
2023-05-22T08:51:43.369Z,52.95
2023-05-22T08:55:47.918Z,53.34
2023-05-22T08:59:51.752Z,52.67
2023-05-22T09:03:55.559Z,52.42
2023-05-22T09:08:08.451Z,52.39
2023-05-22T09:12:20.983Z,52.06
2023-05-22T09:16:27.110Z,52.89
2023-05-22T09:20:30.217Z,52.05
2023-05-22T09:24:39.489Z,52.67
2023-05-22T09:28:44.473Z,51.54
2023-05-22T09:32:49.936Z,50.64
2023-05-22T09:36:55.132Z,49.80
2023-05-22T09:40:58.504Z,50.59
2023-05-22T09:45:05.966Z,49.93
2023-05-22T09:49:16.523Z,49.96
2023-05-22T09:53:37.944Z,50.08
2023-05-22T09:57:43.961Z,49.94
2023-05-22T10:01:49.702Z,48.93
2023-05-22T10:05:55.789Z,49.26
2023-05-22T10:10:05.426Z,48.47
2023-05-22T10:14:09.805Z,49.08
2023-05-22T10:18:16.026Z,48.89
2023-05-22T10:22:21.326Z,48.37
2023-05-22T10:26:25.050Z,47.60
2023-05-22T10:30:33.934Z,47.34
2023-05-22T10:35:12.870Z,47.01
2023-05-22T10:39:32.402Z,46.11
2023-05-22T10:43:40.122Z,46.32
2023-05-22T10:47:43.712Z,46.87
2023-05-22T10:51:48.389Z,45.54
2023-05-22T10:55:52.780Z,45.31
2023-05-22T11:00:09.685Z,44.42
2023-05-22T11:04:13.429Z,45.77
2023-05-22T11:08:39.549Z,45.51
2023-05-22T11:12:42.728Z,44.69
2023-05-22T11:16:45.833Z,43.91
2023-05-22T11:20:49.170Z,43.98
2023-05-22T11:24:53.599Z,43.35
2023-05-22T11:28:56.865Z,43.95
2023-05-22T11:33:01.222Z,44.10
2023-05-22T11:37:04.921Z,43.59
2023-05-22T11:41:10.075Z,43.11
2023-05-22T11:45:13.325Z,43.35
2023-05-22T11:49:17.350Z,43.90
2023-05-22T11:53:21.167Z,43.76
2023-05-22T11:57:25.582Z,43.27
2023-05-22T12:01:28.629Z,43.47
2023-05-22T12:05:33.244Z,42.87
2023-05-22T12:09:36.431Z,42.80
2023-05-22T12:13:41.353Z,43.44
2023-05-22T12:17:44.765Z,42.90
2023-05-22T12:21:47.795Z,42.32
2023-05-22T12:25:59.014Z,41.72
2023-05-22T12:30:10.438Z,42.33
2023-05-22T12:34:14.169Z,41.80
2023-05-22T12:38:17.207Z,42.07
2023-05-22T12:42:20.373Z,42.44
2023-05-22T12:46:24.757Z,42.16
2023-05-22T12:50:27.800Z,41.58
2023-05-22T12:54:31.541Z,42.11
2023-05-22T12:58:34.635Z,42.80
2023-05-22T13:02:39.099Z,42.37
2023-05-22T13:06:42.307Z,42.07
2023-05-22T13:10:45.534Z,41.35
2023-05-22T13:14:48.875Z,41.58
2023-05-22T13:18:53.326Z,41.07
2023-05-22T13:22:56.425Z,41.01
2023-05-22T13:26:59.485Z,40.49
2023-05-22T13:31:02.532Z,39.88
2023-05-22T13:35:07.829Z,40.05
2023-05-22T13:39:10.952Z,40.79
2023-05-22T13:43:14.495Z,40.50
2023-05-22T13:47:17.851Z,40.70
2023-05-22T13:51:22.326Z,41.11
2023-05-22T13:55:25.577Z,40.23
2023-05-22T13:59:28.911Z,40.46
2023-05-22T14:03:32.087Z,41.31
2023-05-22T14:07:36.580Z,40.49
2023-05-22T14:11:39.736Z,40.90
2023-05-22T14:15:43.394Z,40.07
2023-05-22T14:19:46.477Z,39.70
2023-05-22T14:23:50.970Z,39.70
2023-05-22T14:27:54.028Z,39.77
2023-05-22T14:32:04.146Z,40.25
2023-05-22T14:36:07.473Z,40.00
2023-05-22T14:40:12.468Z,40.21
2023-05-22T14:44:15.555Z,40.72
2023-05-22T14:48:18.665Z,40.78
2023-05-22T14:52:21.739Z,40.91
2023-05-22T14:56:26.646Z,41.24
2023-05-22T15:00:29.846Z,41.75
2023-05-22T15:04:32.905Z,41.35
2023-05-22T15:08:36.582Z,41.71
2023-05-22T15:12:41.178Z,41.83
2023-05-22T15:16:44.318Z,42.14
2023-05-22T15:20:47.581Z,42.77
2023-05-22T15:25:05.341Z,42.46
2023-05-22T15:29:09.901Z,42.57
2023-05-22T15:33:13.192Z,42.66
2023-05-22T15:37:16.293Z,42.95
2023-05-22T15:41:19.452Z,42.05
2023-05-22T15:45:23.877Z,42.61
2023-05-22T15:49:29.341Z,42.41
2023-05-22T15:53:34.020Z,42.36
2023-05-22T15:57:38.146Z,43.01
2023-05-22T16:01:42.583Z,42.99
2023-05-22T16:05:47.013Z,42.86
2023-05-22T16:09:50.350Z,42.89
2023-05-22T16:13:53.524Z,43.10
2023-05-22T16:17:58.132Z,43.09
2023-05-22T16:22:01.359Z,43.35
2023-05-22T16:26:04.461Z,43.40
2023-05-22T16:30:08.735Z,43.17
2023-05-22T16:34:13.390Z,43.88
2023-05-22T16:38:16.440Z,43.80
2023-05-22T16:42:19.467Z,43.97
2023-05-22T16:46:22.672Z,44.02
2023-05-22T16:50:27.334Z,43.92
2023-05-22T16:54:30.342Z,43.96
2023-05-22T16:58:34.097Z,43.98
2023-05-22T17:02:37.553Z,44.42
2023-05-22T17:06:42.315Z,44.47
2023-05-22T17:10:45.359Z,45.08
2023-05-22T17:14:48.574Z,45.14
2023-05-22T17:18:54.155Z,45.40
2023-05-22T17:22:59.287Z,45.62
2023-05-22T17:27:03.461Z,45.55
2023-05-22T17:31:07.128Z,45.87
2023-05-22T17:35:10.217Z,45.69
2023-05-22T17:39:14.601Z,46.21
2023-05-22T17:43:19.095Z,46.74
2023-05-22T17:47:22.217Z,47.00
2023-05-22T17:51:25.337Z,47.21
2023-05-22T17:55:29.728Z,47.55
2023-05-22T17:59:33.798Z,47.57
2023-05-22T18:03:36.930Z,48.20
2023-05-22T18:07:39.971Z,47.97
2023-05-22T18:11:44.449Z,47.71
2023-05-22T18:15:49.023Z,48.01
2023-05-22T18:19:52.093Z,48.63
2023-05-22T18:23:56.115Z,48.36
2023-05-22T18:28:00.659Z,49.08
2023-05-22T18:32:03.905Z,49.16
2023-05-22T18:36:07.072Z,49.47
2023-05-22T18:40:11.461Z,49.67
2023-05-22T18:44:15.892Z,50.08
2023-05-22T18:48:20.152Z,50.14
2023-05-22T18:52:25.761Z,50.71
2023-05-22T18:56:28.808Z,50.42
2023-05-22T19:00:33.355Z,50.67
2023-05-22T19:04:36.406Z,51.43
2023-05-22T19:08:40.418Z,51.36
2023-05-22T19:12:43.491Z,51.66
2023-05-22T19:16:48.030Z,51.67
2023-05-22T19:20:51.154Z,51.96
2023-05-22T19:24:54.183Z,52.49
2023-05-22T19:28:59.379Z,52.83
2023-05-22T19:33:04.477Z,53.38
2023-05-22T19:37:09.405Z,53.55
2023-05-22T19:41:12.466Z,54.27
2023-05-22T19:45:15.898Z,54.26
2023-05-22T19:49:20.337Z,54.59
2023-05-22T19:53:23.422Z,55.33
2023-05-22T19:57:27.155Z,54.78
2023-05-22T20:01:30.501Z,54.93
2023-05-22T20:05:35.003Z,54.65
2023-05-22T20:09:38.428Z,55.22
2023-05-22T20:13:41.449Z,55.33
2023-05-22T20:17:47.621Z,55.20
2023-05-22T20:21:52.544Z,55.44
2023-05-22T20:25:55.556Z,55.57
2023-05-22T20:30:00.075Z,55.86
2023-05-22T20:34:04.687Z,56.38
2023-05-22T20:38:09.877Z,56.59
2023-05-22T20:42:13.174Z,56.30
2023-05-22T20:46:16.355Z,56.94
2023-05-22T20:50:19.643Z,57.30
2023-05-22T20:54:24.053Z,57.37
2023-05-22T20:58:27.400Z,56.90
2023-05-22T21:02:31.052Z,57.14
2023-05-22T21:06:34.105Z,57.26
2023-05-22T21:10:38.661Z,57.88
2023-05-22T21:14:43.477Z,58.57
2023-05-22T21:18:46.838Z,58.97
2023-05-22T21:22:49.927Z,59.17
2023-05-22T21:26:54.387Z,59.73
2023-05-22T21:30:57.515Z,60.01
2023-05-22T21:35:00.602Z,60.06
2023-05-22T21:39:03.685Z,60.59
2023-05-22T21:43:08.050Z,60.73
2023-05-22T21:47:11.090Z,61.01
2023-05-22T21:51:14.152Z,60.78
2023-05-22T21:55:17.258Z,61.33
2023-05-22T21:59:21.781Z,61.52
2023-05-22T22:03:25.325Z,61.68
2023-05-22T22:07:28.404Z,61.92
2023-05-22T22:11:31.460Z,62.16
2023-05-22T22:15:36.779Z,61.97
2023-05-22T22:19:41.754Z,62.53
2023-05-22T22:23:44.768Z,63.07
2023-05-22T22:27:47.824Z,63.47
2023-05-22T22:31:52.934Z,64.21
2023-05-22T22:35:56.402Z,64.74
2023-05-22T22:39:59.459Z,65.31
2023-05-22T22:44:02.466Z,65.65
2023-05-22T22:48:07.041Z,65.90
2023-05-22T22:52:10.258Z,66.34
2023-05-22T22:56:13.455Z,66.31
2023-05-22T23:00:17.214Z,66.47
2023-05-22T23:04:21.975Z,66.99
2023-05-22T23:08:25.297Z,67.20
2023-05-22T23:12:28.327Z,67.77
2023-05-22T23:16:35.083Z,67.92
2023-05-22T23:20:39.610Z,68.16
2023-05-22T23:24:42.679Z,68.41
2023-05-22T23:28:45.751Z,68.89
2023-05-22T23:32:48.809Z,69.06
2023-05-22T23:36:53.272Z,69.35
2023-05-22T23:40:56.331Z,69.24
2023-05-22T23:44:59.357Z,69.40
2023-05-22T23:49:02.455Z,69.72
2023-05-22T23:53:07.012Z,69.95
2023-05-22T23:57:10.564Z,70.00
